PWSweather.com
Personal Weather Stations
Station Observations
COONRAPIDS
Minneapolis, MN 55433

Minneapolis, MN 55433

Lat: 45.187721, Lon: -93.36828

Elevation: 898

Station Type: Davis Vantage Pro 2

High Low Average
Temperature 41.3°F5.2°C 31.9°F-0.1°C 35.9°F2.2°C
Dew Point 33.6°F0.9°C 4.9°F-15.1°C 17.7°F-7.9°C
Winds 9.2 mph 14.8 kmh Calm Calm 2.0 mph WNW3.2 kmh WNW
Wind Gusts 17.3 mph27.8 kmh -- 6.0 mph9.7 kmh
Humidity 88% 25% 51%
Pressure 29.88 in1011.9 mb 29.67 in1004.7 mb -
Precipitation 0.01 in0.3 mm - -
Hour Temp Dew Point Humidity Winds Wind Gusts Pressure Precip Precip Rate Daily Precip Total
12:00 AM 34.7°F1.5°C 30.9°F-0.6°C 86% Calm Calm -- 29.67 in1004.7 mb - 0.00 in0.0 mm 0.00 in0.0 mm
12:10 AM 34.3°F1.3°C 30.6°F-0.8°C 86% Calm Calm -- 29.67 in1004.7 mb - 0.00 in0.0 mm 0.00 in0.0 mm
12:20 AM 34.2°F1.2°C 30.4°F-0.9°C 86% Calm Calm -- 29.67 in1004.7 mb - 0.00 in0.0 mm 0.00 in0.0 mm
12:30 AM 33.9°F1.1°C 30.2°F-1.0°C 86% Calm Calm -- 29.67 in1004.7 mb - 0.00 in0.0 mm 0.00 in0.0 mm
12:40 AM 33.8°F1.0°C 30.3°F-0.9°C 87% Calm Calm -- 29.68 in1005.1 mb - 0.00 in0.0 mm 0.00 in0.0 mm
12:50 AM 33.7°F0.9°C 30.2°F-1.0°C 87% Calm Calm -- 29.67 in1004.7 mb - 0.00 in0.0 mm 0.00 in0.0 mm
01:00 AM 34.1°F1.2°C 30.6°F-0.8°C 87% Calm Calm -- 29.67 in1004.7 mb - 0.00 in0.0 mm 0.00 in0.0 mm
01:10 AM 34.2°F1.2°C 31.0°F-0.6°C 88% Calm Calm -- 29.67 in1004.7 mb - 0.00 in0.0 mm 0.00 in0.0 mm
01:20 AM 34.2°F1.2°C 31.0°F-0.6°C 88% Calm Calm -- 29.67 in1004.7 mb - 0.00 in0.0 mm 0.00 in0.0 mm
01:30 AM 34.3°F1.3°C 31.1°F-0.5°C 88% Calm Calm -- 29.68 in1005.1 mb - 0.00 in0.0 mm 0.00 in0.0 mm
01:40 AM 34.6°F1.4°C 31.4°F-0.3°C 88% Calm Calm -- 29.68 in1005.1 mb - 0.00 in0.0 mm 0.00 in0.0 mm
01:50 AM 35.0°F1.7°C 31.8°F-0.1°C 88% Calm Calm -- 29.68 in1005.1 mb - 0.00 in0.0 mm 0.00 in0.0 mm
02:00 AM 35.6°F2.0°C 32.4°F0.2°C 88% Calm Calm -- 29.68 in1005.1 mb - 0.00 in0.0 mm 0.00 in0.0 mm
02:10 AM 36.4°F2.4°C 33.2°F0.7°C 88% Calm Calm -- 29.69 in1005.4 mb - 0.00 in0.0 mm 0.00 in0.0 mm
02:20 AM 37.0°F2.8°C 33.5°F0.8°C 87% Calm Calm -- 29.69 in1005.4 mb - 0.00 in0.0 mm 0.00 in0.0 mm
02:30 AM 37.4°F3.0°C 33.6°F0.9°C 86% 1.2 mph NW1.9 kmh NW 5.8 mph9.3 kmh 29.69 in1005.4 mb - 0.00 in0.0 mm 0.00 in0.0 mm
02:40 AM 37.8°F3.2°C 33.1°F0.6°C 83% Calm Calm 3.5 mph5.6 kmh 29.69 in1005.4 mb - 0.00 in0.0 mm 0.00 in0.0 mm
02:50 AM 38.1°F3.4°C 32.8°F0.4°C 81% 1.2 mph NW1.9 kmh NW -- 29.70 in1005.8 mb - 0.00 in0.0 mm 0.00 in0.0 mm
03:00 AM 38.4°F3.6°C 32.1°F0.1°C 78% 2.3 mph NW3.7 kmh NW 3.5 mph5.6 kmh 29.70 in1005.8 mb - 0.00 in0.0 mm 0.00 in0.0 mm
03:10 AM 38.4°F3.6°C 32.1°F0.1°C 78% 2.3 mph NNW3.7 kmh NNW 3.5 mph5.6 kmh 29.70 in1005.8 mb - 0.00 in0.0 mm 0.00 in0.0 mm
03:20 AM 38.3°F3.5°C 32.0°F0.0°C 78% Calm Calm 3.5 mph5.6 kmh 29.70 in1005.8 mb - 0.00 in0.0 mm 0.00 in0.0 mm
03:30 AM 38.1°F3.4°C 31.8°F-0.1°C 78% 1.2 mph NW1.9 kmh NW 3.5 mph5.6 kmh 29.71 in1006.1 mb - 0.00 in0.0 mm 0.00 in0.0 mm
03:40 AM 38.0°F3.3°C 32.1°F0.1°C 79% Calm Calm 10.4 mph16.7 kmh 29.71 in1006.1 mb - 0.00 in0.0 mm 0.00 in0.0 mm
03:50 AM 37.8°F3.2°C 31.9°F-0.1°C 79% 2.3 mph N3.7 kmh N 3.5 mph5.6 kmh 29.71 in1006.1 mb - 0.00 in0.0 mm 0.00 in0.0 mm
04:00 AM 37.5°F3.1°C 31.9°F-0.1°C 80% Calm Calm -- 29.72 in1006.4 mb - 0.00 in0.0 mm 0.00 in0.0 mm
04:10 AM 37.0°F2.8°C 31.7°F-0.2°C 81% Calm Calm -- 29.72 in1006.4 mb - 0.01 in0.3 mm 0.01 in0.3 mm
04:20 AM 36.7°F2.6°C 31.7°F-0.2°C 82% 1.2 mph NNW1.9 kmh NNW 5.8 mph9.3 kmh 29.73 in1006.8 mb - 0.00 in0.0 mm 0.01 in0.3 mm
04:30 AM 36.5°F2.5°C 31.5°F-0.3°C 82% 1.2 mph NNE1.9 kmh NNE 2.3 mph3.7 kmh 29.73 in1006.8 mb - 0.00 in0.0 mm 0.01 in0.3 mm
04:40 AM 36.4°F2.4°C 31.4°F-0.3°C 82% 1.2 mph N1.9 kmh N 3.5 mph5.6 kmh 29.73 in1006.8 mb - 0.00 in0.0 mm 0.01 in0.3 mm
04:50 AM 36.4°F2.4°C 31.4°F-0.3°C 82% Calm Calm -- 29.73 in1006.8 mb - 0.00 in0.0 mm 0.01 in0.3 mm
05:00 AM 36.4°F2.4°C 31.4°F-0.3°C 82% 1.2 mph NNW1.9 kmh NNW 3.5 mph5.6 kmh 29.73 in1006.8 mb - 0.00 in0.0 mm 0.01 in0.3 mm
05:10 AM 36.3°F2.4°C 31.3°F-0.4°C 82% Calm Calm -- 29.73 in1006.8 mb - 0.00 in0.0 mm 0.01 in0.3 mm
05:20 AM 36.3°F2.4°C 31.3°F-0.4°C 82% Calm Calm 2.3 mph3.7 kmh 29.74 in1007.1 mb - 0.00 in0.0 mm 0.01 in0.3 mm
05:30 AM 36.2°F2.3°C 30.3°F-0.9°C 79% 2.3 mph NW3.7 kmh NW 6.9 mph11.1 kmh 29.75 in1007.5 mb - 0.00 in0.0 mm 0.01 in0.3 mm
05:40 AM 36.0°F2.2°C 27.8°F-2.3°C 72% 1.2 mph N1.9 kmh N 6.9 mph11.1 kmh 29.75 in1007.5 mb - 0.00 in0.0 mm 0.01 in0.3 mm
05:50 AM 35.3°F1.8°C 25.4°F-3.7°C 67% 3.5 mph NNW5.6 kmh NNW 6.9 mph11.1 kmh 29.76 in1007.8 mb - 0.00 in0.0 mm 0.01 in0.3 mm
06:00 AM 34.8°F1.6°C 24.6°F-4.1°C 66% 1.2 mph NNW1.9 kmh NNW 5.8 mph9.3 kmh 29.77 in1008.1 mb - 0.00 in0.0 mm 0.01 in0.3 mm
06:10 AM 34.3°F1.3°C 24.8°F-4.0°C 68% Calm Calm 4.6 mph7.4 kmh 29.78 in1008.5 mb - 0.00 in0.0 mm 0.01 in0.3 mm
06:20 AM 34.0°F1.1°C 24.9°F-3.9°C 69% 2.3 mph NNW3.7 kmh NNW 4.6 mph7.4 kmh 29.78 in1008.5 mb - 0.00 in0.0 mm 0.01 in0.3 mm
06:30 AM 33.8°F1.0°C 24.0°F-4.4°C 67% 3.5 mph N5.6 kmh N 3.5 mph5.6 kmh 29.79 in1008.8 mb - 0.00 in0.0 mm 0.01 in0.3 mm
06:40 AM 33.5°F0.8°C 23.0°F-5.0°C 65% 1.2 mph N1.9 kmh N 3.5 mph5.6 kmh 29.79 in1008.8 mb - 0.00 in0.0 mm 0.01 in0.3 mm
06:50 AM 33.4°F0.8°C 22.5°F-5.3°C 64% Calm Calm -- 29.80 in1009.1 mb - 0.00 in0.0 mm 0.01 in0.3 mm
07:00 AM 33.5°F0.8°C 23.7°F-4.6°C 67% 1.2 mph NNW1.9 kmh NNW 3.5 mph5.6 kmh 29.80 in1009.1 mb - 0.00 in0.0 mm 0.01 in0.3 mm
07:10 AM 33.9°F1.1°C 24.1°F-4.4°C 67% 2.3 mph NNW3.7 kmh NNW 9.2 mph14.8 kmh 29.81 in1009.5 mb - 0.00 in0.0 mm 0.01 in0.3 mm
07:20 AM 34.1°F1.2°C 23.9°F-4.5°C 66% Calm Calm -- 29.81 in1009.5 mb - 0.00 in0.0 mm 0.01 in0.3 mm
07:30 AM 34.3°F1.3°C 23.0°F-5.0°C 63% 4.6 mph NW7.4 kmh NW 11.5 mph18.5 kmh 29.82 in1009.8 mb - 0.00 in0.0 mm 0.01 in0.3 mm
07:40 AM 34.6°F1.4°C 21.7°F-5.7°C 59% 5.8 mph NNW9.3 kmh NNW 8.1 mph13.0 kmh 29.82 in1009.8 mb - 0.00 in0.0 mm 0.01 in0.3 mm
07:50 AM 34.3°F1.3°C 20.3°F-6.5°C 56% 5.8 mph NW9.3 kmh NW 10.4 mph16.7 kmh 29.82 in1009.8 mb - 0.00 in0.0 mm 0.01 in0.3 mm
08:00 AM 34.5°F1.4°C 20.4°F-6.4°C 56% 3.5 mph NNW5.6 kmh NNW 8.1 mph13.0 kmh 29.83 in1010.2 mb - 0.00 in0.0 mm 0.01 in0.3 mm
08:10 AM 34.8°F1.6°C 20.3°F-6.5°C 55% 4.6 mph N7.4 kmh N 5.8 mph9.3 kmh 29.84 in1010.5 mb - 0.00 in0.0 mm 0.01 in0.3 mm
08:20 AM 35.0°F1.7°C 20.0°F-6.7°C 54% 3.5 mph NNW5.6 kmh NNW 5.8 mph9.3 kmh 29.84 in1010.5 mb - 0.00 in0.0 mm 0.01 in0.3 mm
08:30 AM 35.2°F1.8°C 20.6°F-6.3°C 55% 2.3 mph NNW3.7 kmh NNW 4.6 mph7.4 kmh 29.84 in1010.5 mb - 0.00 in0.0 mm 0.01 in0.3 mm
08:40 AM 35.3°F1.8°C 18.5°F-7.5°C 50% 6.9 mph N11.1 kmh N 6.9 mph11.1 kmh 29.84 in1010.5 mb - 0.00 in0.0 mm 0.01 in0.3 mm
08:50 AM 35.7°F2.1°C 19.8°F-6.8°C 52% 3.5 mph N5.6 kmh N 4.6 mph7.4 kmh 29.85 in1010.8 mb - 0.00 in0.0 mm 0.01 in0.3 mm
09:00 AM 35.9°F2.2°C 20.4°F-6.4°C 53% 6.9 mph NW11.1 kmh NW 15.0 mph24.1 kmh 29.85 in1010.8 mb - 0.00 in0.0 mm 0.01 in0.3 mm
09:10 AM 34.9°F1.6°C 20.0°F-6.7°C 54% 8.1 mph NNW13.0 kmh NNW 11.5 mph18.5 kmh 29.85 in1010.8 mb - 0.00 in0.0 mm 0.01 in0.3 mm
09:20 AM 35.4°F1.9°C 18.1°F-7.7°C 49% 6.9 mph NNW11.1 kmh NNW 12.7 mph20.4 kmh 29.86 in1011.2 mb - 0.00 in0.0 mm 0.01 in0.3 mm
09:30 AM 35.5°F1.9°C 17.7°F-7.9°C 48% 5.8 mph N9.3 kmh N 11.5 mph18.5 kmh 29.86 in1011.2 mb - 0.00 in0.0 mm 0.01 in0.3 mm
09:40 AM 36.2°F2.3°C 18.3°F-7.6°C 48% 5.8 mph N9.3 kmh N 9.2 mph14.8 kmh 29.86 in1011.2 mb - 0.00 in0.0 mm 0.01 in0.3 mm
09:50 AM 36.2°F2.3°C 17.4°F-8.1°C 46% 3.5 mph WNW5.6 kmh WNW 9.2 mph14.8 kmh 29.86 in1011.2 mb - 0.00 in0.0 mm 0.01 in0.3 mm
10:00 AM 36.7°F2.6°C 16.8°F-8.4°C 44% 3.5 mph NW5.6 kmh NW 9.2 mph14.8 kmh 29.87 in1011.5 mb - 0.00 in0.0 mm 0.01 in0.3 mm
10:10 AM 36.4°F2.4°C 16.0°F-8.9°C 43% 9.2 mph NW14.8 kmh NW 17.3 mph27.8 kmh 29.87 in1011.5 mb - 0.00 in0.0 mm 0.01 in0.3 mm
10:20 AM 36.3°F2.4°C 16.5°F-8.6°C 44% 1.2 mph NW1.9 kmh NW 6.9 mph11.1 kmh 29.88 in1011.9 mb - 0.00 in0.0 mm 0.01 in0.3 mm
10:30 AM 37.3°F2.9°C 14.6°F-9.7°C 39% 5.8 mph NNW9.3 kmh NNW 8.1 mph13.0 kmh 29.88 in1011.9 mb - 0.00 in0.0 mm 0.01 in0.3 mm
10:40 AM 37.4°F3.0°C 16.4°F-8.7°C 42% 3.5 mph WNW5.6 kmh WNW 6.9 mph11.1 kmh 29.88 in1011.9 mb - 0.00 in0.0 mm 0.01 in0.3 mm
10:50 AM 37.1°F2.8°C 15.5°F-9.2°C 41% 3.5 mph NNW5.6 kmh NNW 9.2 mph14.8 kmh 29.88 in1011.9 mb - 0.00 in0.0 mm 0.01 in0.3 mm
11:00 AM 37.3°F2.9°C 14.6°F-9.7°C 39% 4.6 mph N7.4 kmh N 9.2 mph14.8 kmh 29.88 in1011.9 mb - 0.00 in0.0 mm 0.01 in0.3 mm
11:10 AM 36.4°F2.4°C 14.9°F-9.5°C 41% 6.9 mph N11.1 kmh N 11.5 mph18.5 kmh 29.88 in1011.9 mb - 0.00 in0.0 mm 0.01 in0.3 mm
11:20 AM 37.9°F3.3°C 16.3°F-8.7°C 41% 5.8 mph NW9.3 kmh NW 12.7 mph20.4 kmh 29.88 in1011.9 mb - 0.00 in0.0 mm 0.01 in0.3 mm
11:30 AM 36.6°F2.6°C 15.1°F-9.4°C 41% 1.2 mph N1.9 kmh N 8.1 mph13.0 kmh 29.88 in1011.9 mb - 0.00 in0.0 mm 0.01 in0.3 mm
11:40 AM 38.4°F3.6°C 15.5°F-9.2°C 39% 5.8 mph NNW9.3 kmh NNW 8.1 mph13.0 kmh 29.88 in1011.9 mb - 0.00 in0.0 mm 0.01 in0.3 mm
11:50 AM 38.0°F3.3°C 13.4°F-10.3°C 36% 5.8 mph NW9.3 kmh NW 16.1 mph25.9 kmh 29.88 in1011.9 mb - 0.00 in0.0 mm 0.01 in0.3 mm
12:00 PM 37.5°F3.1°C 12.3°F-10.9°C 35% 8.1 mph NW13.0 kmh NW 11.5 mph18.5 kmh 29.88 in1011.9 mb - 0.00 in0.0 mm 0.01 in0.3 mm
12:10 PM 39.1°F3.9°C 13.0°F-10.6°C 34% 5.8 mph W9.3 kmh W 9.2 mph14.8 kmh 29.88 in1011.9 mb - 0.00 in0.0 mm 0.01 in0.3 mm
12:20 PM 39.5°F4.2°C 14.7°F-9.6°C 36% 4.6 mph NW7.4 kmh NW 8.1 mph13.0 kmh 29.88 in1011.9 mb - 0.00 in0.0 mm 0.01 in0.3 mm
12:30 PM 40.2°F4.6°C 15.3°F-9.3°C 36% 1.2 mph NW1.9 kmh NW 5.8 mph9.3 kmh 29.88 in1011.9 mb - 0.00 in0.0 mm 0.01 in0.3 mm
12:40 PM 39.6°F4.2°C 12.1°F-11.1°C 32% 4.6 mph NW7.4 kmh NW 12.7 mph20.4 kmh 29.87 in1011.5 mb - 0.00 in0.0 mm 0.01 in0.3 mm
12:50 PM 37.8°F3.2°C 11.2°F-11.6°C 33% 6.9 mph N11.1 kmh N 11.5 mph18.5 kmh 29.88 in1011.9 mb - 0.00 in0.0 mm 0.01 in0.3 mm
01:00 PM 38.7°F3.7°C 12.0°F-11.1°C 33% 2.3 mph N3.7 kmh N 4.6 mph7.4 kmh 29.88 in1011.9 mb - 0.00 in0.0 mm 0.01 in0.3 mm
01:10 PM 38.8°F3.8°C 10.0°F-12.2°C 30% 2.3 mph N3.7 kmh N 4.6 mph7.4 kmh 29.88 in1011.9 mb - 0.00 in0.0 mm 0.01 in0.3 mm
01:20 PM 39.8°F4.3°C 10.1°F-12.2°C 29% 3.5 mph NW5.6 kmh NW 10.4 mph16.7 kmh 29.87 in1011.5 mb - 0.00 in0.0 mm 0.01 in0.3 mm
01:30 PM 40.1°F4.5°C 9.6°F-12.4°C 28% 4.6 mph N7.4 kmh N 9.2 mph14.8 kmh 29.87 in1011.5 mb - 0.00 in0.0 mm 0.01 in0.3 mm
01:40 PM 40.7°F4.8°C 10.0°F-12.2°C 28% 5.8 mph NNW9.3 kmh NNW 12.7 mph20.4 kmh 29.87 in1011.5 mb - 0.00 in0.0 mm 0.01 in0.3 mm
01:50 PM 40.1°F4.5°C 7.9°F-13.4°C 26% 2.3 mph NW3.7 kmh NW 11.5 mph18.5 kmh 29.87 in1011.5 mb - 0.00 in0.0 mm 0.01 in0.3 mm
02:00 PM 40.5°F4.7°C 10.7°F-11.8°C 29% 2.3 mph NW3.7 kmh NW 8.1 mph13.0 kmh 29.87 in1011.5 mb - 0.00 in0.0 mm 0.01 in0.3 mm
02:10 PM 40.8°F4.9°C 7.6°F-13.6°C 25% 3.5 mph NW5.6 kmh NW 5.8 mph9.3 kmh 29.87 in1011.5 mb - 0.00 in0.0 mm 0.01 in0.3 mm
02:20 PM 40.3°F4.6°C 9.7°F-12.4°C 28% 3.5 mph NW5.6 kmh NW 16.1 mph25.9 kmh 29.87 in1011.5 mb - 0.00 in0.0 mm 0.01 in0.3 mm
02:30 PM 41.0°F5.0°C 9.5°F-12.5°C 27% 2.3 mph N3.7 kmh N 3.5 mph5.6 kmh 29.86 in1011.2 mb - 0.00 in0.0 mm 0.01 in0.3 mm
02:40 PM 41.3°F5.2°C 10.6°F-11.9°C 28% 4.6 mph WNW7.4 kmh WNW 8.1 mph13.0 kmh 29.87 in1011.5 mb - 0.00 in0.0 mm 0.01 in0.3 mm
03:00 PM 40.4°F4.7°C 10.6°F-11.9°C 29% 6.9 mph NW11.1 kmh NW 16.1 mph25.9 kmh 29.87 in1011.5 mb - 0.00 in0.0 mm 0.01 in0.3 mm
03:10 PM 40.2°F4.6°C 9.6°F-12.4°C 28% 4.6 mph NW7.4 kmh NW 11.5 mph18.5 kmh 29.87 in1011.5 mb - 0.00 in0.0 mm 0.01 in0.3 mm
03:20 PM 39.8°F4.3°C 6.7°F-14.1°C 25% 3.5 mph NNW5.6 kmh NNW 15.0 mph24.1 kmh 29.87 in1011.5 mb - 0.00 in0.0 mm 0.01 in0.3 mm
03:30 PM 39.9°F4.4°C 8.5°F-13.1°C 27% 2.3 mph W3.7 kmh W 11.5 mph18.5 kmh 29.87 in1011.5 mb - 0.00 in0.0 mm 0.01 in0.3 mm
03:50 PM 38.7°F3.7°C 9.9°F-12.3°C 30% 3.5 mph NW5.6 kmh NW 8.1 mph13.0 kmh 29.87 in1011.5 mb - 0.00 in0.0 mm 0.01 in0.3 mm
04:00 PM 38.7°F3.7°C 9.1°F-12.7°C 29% 3.5 mph NW5.6 kmh NW 10.4 mph16.7 kmh 29.87 in1011.5 mb - 0.00 in0.0 mm 0.01 in0.3 mm
04:10 PM 39.4°F4.1°C 8.1°F-13.3°C 27% 5.8 mph NW9.3 kmh NW 11.5 mph18.5 kmh 29.87 in1011.5 mb - 0.00 in0.0 mm 0.01 in0.3 mm
04:20 PM 39.2°F4.0°C 8.0°F-13.3°C 27% 6.9 mph W11.1 kmh W 15.0 mph24.1 kmh 29.87 in1011.5 mb - 0.00 in0.0 mm 0.01 in0.3 mm
04:30 PM 38.9°F3.8°C 8.5°F-13.1°C 28% 4.6 mph NW7.4 kmh NW 10.4 mph16.7 kmh 29.87 in1011.5 mb - 0.00 in0.0 mm 0.01 in0.3 mm
04:40 PM 38.9°F3.8°C 7.7°F-13.5°C 27% 2.3 mph NW3.7 kmh NW 6.9 mph11.1 kmh 29.86 in1011.2 mb - 0.00 in0.0 mm 0.01 in0.3 mm
04:50 PM 38.6°F3.7°C 7.4°F-13.7°C 27% 5.8 mph WNW9.3 kmh WNW 10.4 mph16.7 kmh 29.86 in1011.2 mb - 0.00 in0.0 mm 0.01 in0.3 mm
05:00 PM 38.2°F3.4°C 7.1°F-13.8°C 27% 4.6 mph W7.4 kmh W 12.7 mph20.4 kmh 29.86 in1011.2 mb - 0.00 in0.0 mm 0.01 in0.3 mm
05:10 PM 38.1°F3.4°C 6.2°F-14.3°C 26% 4.6 mph WNW7.4 kmh WNW 10.4 mph16.7 kmh 29.86 in1011.2 mb - 0.00 in0.0 mm 0.01 in0.3 mm
05:40 PM 36.4°F2.4°C 7.1°F-13.8°C 29% 3.5 mph NW5.6 kmh NW 15.0 mph24.1 kmh 29.86 in1011.2 mb - 0.00 in0.0 mm 0.01 in0.3 mm
05:50 PM 35.6°F2.0°C 6.4°F-14.2°C 29% 3.5 mph W5.6 kmh W 10.4 mph16.7 kmh 29.87 in1011.5 mb - 0.00 in0.0 mm 0.01 in0.3 mm
06:00 PM 35.2°F1.8°C 6.0°F-14.4°C 29% 4.6 mph NW7.4 kmh NW 8.1 mph13.0 kmh 29.87 in1011.5 mb - 0.00 in0.0 mm 0.01 in0.3 mm
06:10 PM 35.0°F1.7°C 6.6°F-14.1°C 30% Calm Calm 2.3 mph3.7 kmh 29.87 in1011.5 mb - 0.00 in0.0 mm 0.01 in0.3 mm
06:20 PM 34.6°F1.4°C 6.3°F-14.3°C 30% 4.6 mph W7.4 kmh W 4.6 mph7.4 kmh 29.87 in1011.5 mb - 0.00 in0.0 mm 0.01 in0.3 mm
06:30 PM 34.2°F1.2°C 5.9°F-14.5°C 30% 2.3 mph WNW3.7 kmh WNW 11.5 mph18.5 kmh 29.86 in1011.2 mb - 0.00 in0.0 mm 0.01 in0.3 mm
06:40 PM 33.9°F1.1°C 4.9°F-15.1°C 29% 5.8 mph WSW9.3 kmh WSW 13.8 mph22.2 kmh 29.86 in1011.2 mb - 0.00 in0.0 mm 0.01 in0.3 mm
06:50 PM 33.5°F0.8°C 5.3°F-14.8°C 30% 3.5 mph W5.6 kmh W 9.2 mph14.8 kmh 29.86 in1011.2 mb - 0.00 in0.0 mm 0.01 in0.3 mm
07:00 PM 33.2°F0.7°C 5.1°F-14.9°C 30% 1.2 mph WNW1.9 kmh WNW 4.6 mph7.4 kmh 29.86 in1011.2 mb - 0.00 in0.0 mm 0.01 in0.3 mm
07:10 PM 32.9°F0.5°C 6.2°F-14.3°C 32% Calm Calm 5.8 mph9.3 kmh 29.86 in1011.2 mb - 0.00 in0.0 mm 0.01 in0.3 mm
07:20 PM 32.7°F0.4°C 7.4°F-13.7°C 34% 1.2 mph WSW1.9 kmh WSW 3.5 mph5.6 kmh 29.86 in1011.2 mb - 0.00 in0.0 mm 0.01 in0.3 mm
07:30 PM 32.5°F0.3°C 7.2°F-13.8°C 34% 1.2 mph NW1.9 kmh NW 8.1 mph13.0 kmh 29.86 in1011.2 mb - 0.00 in0.0 mm 0.01 in0.3 mm
07:40 PM 32.4°F0.2°C 7.1°F-13.8°C 34% Calm Calm 4.6 mph7.4 kmh 29.86 in1011.2 mb - 0.00 in0.0 mm 0.01 in0.3 mm
07:50 PM 32.3°F0.2°C 7.0°F-13.9°C 34% Calm Calm -- 29.86 in1011.2 mb - 0.00 in0.0 mm 0.01 in0.3 mm
08:00 PM 32.2°F0.1°C 7.6°F-13.6°C 35% Calm Calm -- 29.86 in1011.2 mb - 0.00 in0.0 mm 0.01 in0.3 mm
08:10 PM 32.0°F0.0°C 8.0°F-13.3°C 36% Calm Calm -- 29.85 in1010.8 mb - 0.00 in0.0 mm 0.01 in0.3 mm
08:20 PM 31.9°F-0.1°C 7.3°F-13.7°C 35% Calm Calm -- 29.85 in1010.8 mb - 0.00 in0.0 mm 0.01 in0.3 mm
08:30 PM 32.0°F0.0°C 8.0°F-13.3°C 36% Calm Calm -- 29.85 in1010.8 mb - 0.00 in0.0 mm 0.01 in0.3 mm
08:40 PM 32.2°F0.1°C 8.2°F-13.2°C 36% Calm Calm -- 29.84 in1010.5 mb - 0.00 in0.0 mm 0.01 in0.3 mm
08:50 PM 32.3°F0.2°C 9.5°F-12.5°C 38% Calm Calm -- 29.84 in1010.5 mb - 0.00 in0.0 mm 0.01 in0.3 mm
09:00 PM 32.3°F0.2°C 10.0°F-12.2°C 39% Calm Calm -- 29.83 in1010.2 mb - 0.00 in0.0 mm 0.01 in0.3 mm
09:10 PM 32.2°F0.1°C 9.4°F-12.6°C 38% 1.2 mph WSW1.9 kmh WSW 3.5 mph5.6 kmh 29.83 in1010.2 mb - 0.00 in0.0 mm 0.01 in0.3 mm
09:20 PM 32.1°F0.1°C 9.4°F-12.6°C 38% Calm Calm 3.5 mph5.6 kmh 29.82 in1009.8 mb - 0.00 in0.0 mm 0.01 in0.3 mm
09:30 PM 32.3°F0.2°C 9.5°F-12.5°C 38% 1.2 mph WSW1.9 kmh WSW 1.2 mph1.9 kmh 29.81 in1009.5 mb - 0.00 in0.0 mm 0.01 in0.3 mm
09:40 PM 32.4°F0.2°C 9.6°F-12.4°C 38% Calm Calm -- 29.81 in1009.5 mb - 0.00 in0.0 mm 0.01 in0.3 mm
09:50 PM 32.4°F0.2°C 9.6°F-12.4°C 38% 1.2 mph W1.9 kmh W 4.6 mph7.4 kmh 29.80 in1009.1 mb - 0.00 in0.0 mm 0.01 in0.3 mm
10:00 PM 32.6°F0.3°C 10.3°F-12.1°C 39% 1.2 mph SW1.9 kmh SW 4.6 mph7.4 kmh 29.79 in1008.8 mb - 0.00 in0.0 mm 0.01 in0.3 mm
10:10 PM 32.8°F0.4°C 11.1°F-11.6°C 40% 1.2 mph WSW1.9 kmh WSW 3.5 mph5.6 kmh 29.78 in1008.5 mb - 0.00 in0.0 mm 0.01 in0.3 mm
10:20 PM 32.9°F0.5°C 11.7°F-11.3°C 41% Calm Calm 2.3 mph3.7 kmh 29.77 in1008.1 mb - 0.00 in0.0 mm 0.01 in0.3 mm
10:30 PM 33.2°F0.7°C 12.0°F-11.1°C 41% Calm Calm -- 29.76 in1007.8 mb - 0.00 in0.0 mm 0.01 in0.3 mm
10:40 PM 33.6°F0.9°C 12.9°F-10.6°C 42% 1.2 mph SW1.9 kmh SW -- 29.75 in1007.5 mb - 0.00 in0.0 mm 0.01 in0.3 mm
10:50 PM 33.9°F1.1°C 13.7°F-10.2°C 43% Calm Calm -- 29.75 in1007.5 mb - 0.00 in0.0 mm 0.01 in0.3 mm
11:00 PM 34.1°F1.2°C 14.4°F-9.8°C 44% Calm Calm 2.3 mph3.7 kmh 29.74 in1007.1 mb - 0.00 in0.0 mm 0.01 in0.3 mm
11:10 PM 34.1°F1.2°C 14.9°F-9.5°C 45% 1.2 mph SW1.9 kmh SW 6.9 mph11.1 kmh 29.73 in1006.8 mb - 0.00 in0.0 mm 0.01 in0.3 mm
11:20 PM 34.0°F1.1°C 14.9°F-9.5°C 45% 1.2 mph WSW1.9 kmh WSW 4.6 mph7.4 kmh 29.72 in1006.4 mb - 0.00 in0.0 mm 0.01 in0.3 mm
11:30 PM 34.0°F1.1°C 15.3°F-9.3°C 46% 2.3 mph WSW3.7 kmh WSW 3.5 mph5.6 kmh 29.71 in1006.1 mb - 0.00 in0.0 mm 0.01 in0.3 mm
11:40 PM 34.0°F1.1°C 16.3°F-8.7°C 48% 2.3 mph W3.7 kmh W 3.5 mph5.6 kmh 29.70 in1005.8 mb - 0.00 in0.0 mm 0.01 in0.3 mm
11:50 PM 34.0°F1.1°C 17.7°F-7.9°C 51% 1.2 mph WSW1.9 kmh WSW 6.9 mph11.1 kmh 29.69 in1005.4 mb - 0.00 in0.0 mm 0.01 in0.3 mm